AAR8996 RKPC-RKSS
Flight info
| Callsign | AAR8996 |
|---|---|
| Flight time | 0h 42m |
| Altitude | 35000 |
| Route | KAMIT2E KAMIT Y722 OLMEN OLMEN2T |
| Aircraft | A333/H-SDE3GHIJ2J3J5M1RVWXY/LB2D1 |
Departure
| Time | 2025-09-09 14:56 |
|---|---|
| Airport | Jeju International Airport (RKPC) |
Arrival
| Time | 2025-09-09 15:39 |
|---|---|
| Airport | Gimpo International Airport (RKSS) |
| Time | Latitude | Longitude | Altitude | Speed | Heading |
|---|---|---|---|---|---|
| 2025-09-09 14:31 | 33.50789 | 126.49370 | 98 ft | 0 kts | 183° |
| 2025-09-09 14:43 | 33.50796 | 126.49371 | 98 ft | 2 kts | 183° |
| 2025-09-09 14:44 | 33.50836 | 126.49373 | 98 ft | 3 kts | 183° |
| 2025-09-09 14:44 | 33.50856 | 126.49375 | 96 ft | 3 kts | 183° |
| 2025-09-09 14:45 | 33.50915 | 126.49383 | 97 ft | 3 kts | 214° |
| 2025-09-09 14:45 | 33.50939 | 126.49419 | 96 ft | 2 kts | 240° |
| 2025-09-09 14:46 | 33.50943 | 126.49426 | 96 ft | 0 kts | 238° |
| 2025-09-09 14:48 | 33.50940 | 126.49421 | 96 ft | 2 kts | 238° |
| 2025-09-09 14:49 | 33.50827 | 126.49200 | 98 ft | 19 kts | 238° |
| 2025-09-09 14:49 | 33.50695 | 126.48943 | 95 ft | 15 kts | 238° |
| 2025-09-09 14:50 | 33.50573 | 126.48706 | 97 ft | 17 kts | 238° |
| 2025-09-09 14:50 | 33.50545 | 126.48571 | 96 ft | 8 kts | 320° |
| 2025-09-09 14:51 | 33.50621 | 126.48475 | 96 ft | 8 kts | 275° |
| 2025-09-09 14:51 | 33.50565 | 126.48342 | 97 ft | 10 kts | 239° |
| 2025-09-09 14:52 | 33.50470 | 126.48155 | 99 ft | 19 kts | 238° |
| 2025-09-09 14:52 | 33.50399 | 126.48018 | 100 ft | 20 kts | 238° |
| 2025-09-09 14:53 | 33.50162 | 126.47556 | 102 ft | 23 kts | 238° |
| 2025-09-09 14:53 | 33.49988 | 126.47216 | 103 ft | 25 kts | 238° |
| 2025-09-09 14:54 | 33.49921 | 126.46914 | 105 ft | 16 kts | 325° |
| 2025-09-09 14:54 | 33.50036 | 126.46933 | 101 ft | 1 kts | 56° |
| 2025-09-09 14:55 | 33.50042 | 126.46945 | 102 ft | 5 kts | 57° |
| 2025-09-09 14:55 | 33.50472 | 126.47781 | 100 ft | 118 kts | 58° |
| 2025-09-09 14:56 | 33.51516 | 126.49802 | 995 ft | 147 kts | 60° |
| 2025-09-09 14:56 | 33.52101 | 126.50845 | 1570 ft | 155 kts | 50° |
| 2025-09-09 14:57 | 33.55070 | 126.54061 | 2344 ft | 236 kts | 42° |
| 2025-09-09 14:57 | 33.57668 | 126.56972 | 3396 ft | 267 kts | 44° |
| 2025-09-09 14:58 | 33.60442 | 126.60140 | 4892 ft | 283 kts | 43° |
| 2025-09-09 14:58 | 33.63351 | 126.63417 | 6645 ft | 290 kts | 42° |
| 2025-09-09 14:59 | 33.66338 | 126.66802 | 8359 ft | 299 kts | 43° |
| 2025-09-09 14:59 | 33.69408 | 126.70289 | 10060 ft | 309 kts | 41° |
| 2025-09-09 15:00 | 33.73508 | 126.72158 | 11017 ft | 338 kts | 1° |
| 2025-09-09 15:00 | 33.75870 | 126.72257 | 11586 ft | 349 kts | 359° |
| 2025-09-09 15:01 | 33.83334 | 126.72768 | 13837 ft | 363 kts | 2° |
| 2025-09-09 15:01 | 33.88445 | 126.73271 | 15152 ft | 371 kts | 1° |
| 2025-09-09 15:02 | 33.93607 | 126.73801 | 16499 ft | 376 kts | 1° |
| 2025-09-09 15:02 | 33.98870 | 126.74351 | 17735 ft | 384 kts | 1° |
| 2025-09-09 15:03 | 34.04232 | 126.74914 | 18837 ft | 391 kts | 1° |
| 2025-09-09 15:03 | 34.09750 | 126.75496 | 19788 ft | 400 kts | 0° |
| 2025-09-09 15:04 | 34.15338 | 126.76087 | 20729 ft | 409 kts | 0° |
| 2025-09-09 15:04 | 34.18191 | 126.76389 | 21168 ft | 413 kts | 0° |
| 2025-09-09 15:05 | 34.26890 | 126.77313 | 22464 ft | 425 kts | 0° |
| 2025-09-09 15:05 | 34.32844 | 126.77942 | 23368 ft | 433 kts | 360° |
| 2025-09-09 15:06 | 34.38869 | 126.78581 | 24112 ft | 441 kts | 359° |
| 2025-09-09 15:06 | 34.45050 | 126.79238 | 24809 ft | 448 kts | 359° |
| 2025-09-09 15:07 | 34.51160 | 126.79902 | 24953 ft | 428 kts | 359° |
| 2025-09-09 15:07 | 34.56996 | 126.80536 | 24964 ft | 421 kts | 359° |
| 2025-09-09 15:07 | 34.59933 | 126.80845 | 24962 ft | 423 kts | 359° |
| 2025-09-09 15:08 | 34.65816 | 126.81477 | 24962 ft | 423 kts | 359° |
| 2025-09-09 15:09 | 34.74602 | 126.82405 | 24963 ft | 423 kts | 359° |
| 2025-09-09 15:09 | 34.80455 | 126.83031 | 24961 ft | 423 kts | 359° |
| 2025-09-09 15:10 | 34.86373 | 126.83662 | 24972 ft | 440 kts | 359° |
| 2025-09-09 15:10 | 34.91594 | 126.84208 | 24968 ft | 464 kts | 359° |
| 2025-09-09 15:11 | 34.98193 | 126.84914 | 24968 ft | 488 kts | 360° |
| 2025-09-09 15:11 | 35.05099 | 126.85666 | 24972 ft | 500 kts | 360° |
| 2025-09-09 15:12 | 35.12008 | 126.86429 | 24973 ft | 500 kts | 360° |
| 2025-09-09 15:12 | 35.15492 | 126.86813 | 24991 ft | 500 kts | 360° |
| 2025-09-09 15:13 | 35.29319 | 126.88322 | 24974 ft | 498 kts | 360° |
| 2025-09-09 15:13 | 35.36192 | 126.89073 | 24979 ft | 497 kts | 360° |
| 2025-09-09 15:14 | 35.39597 | 126.89447 | 24985 ft | 497 kts | 359° |
| 2025-09-09 15:14 | 35.46509 | 126.90196 | 24977 ft | 497 kts | 359° |
| 2025-09-09 15:15 | 35.53395 | 126.90944 | 24978 ft | 498 kts | 359° |
| 2025-09-09 15:15 | 35.60326 | 126.91709 | 24978 ft | 498 kts | 359° |
| 2025-09-09 15:16 | 35.67203 | 126.92461 | 24980 ft | 498 kts | 359° |
| 2025-09-09 15:16 | 35.70662 | 126.92839 | 24982 ft | 498 kts | 359° |
| 2025-09-09 15:17 | 35.81020 | 126.93976 | 24978 ft | 497 kts | 359° |
| 2025-09-09 15:17 | 35.87886 | 126.94732 | 24978 ft | 497 kts | 359° |
| 2025-09-09 15:18 | 35.94770 | 126.95492 | 24989 ft | 497 kts | 359° |
| 2025-09-09 15:18 | 36.01671 | 126.96255 | 24977 ft | 496 kts | 359° |
| 2025-09-09 15:19 | 36.08518 | 126.97014 | 24981 ft | 496 kts | 359° |
| 2025-09-09 15:19 | 36.15407 | 126.97779 | 24986 ft | 496 kts | 359° |
| 2025-09-09 15:20 | 36.22255 | 126.98540 | 24976 ft | 496 kts | 359° |
| 2025-09-09 15:20 | 36.25698 | 126.98924 | 24982 ft | 496 kts | 359° |
| 2025-09-09 15:21 | 36.35991 | 127.00073 | 24980 ft | 496 kts | 359° |
| 2025-09-09 15:21 | 36.39442 | 127.00249 | 24986 ft | 491 kts | 354° |
| 2025-09-09 15:22 | 36.49618 | 127.00033 | 24410 ft | 486 kts | 352° |
| 2025-09-09 15:22 | 36.56337 | 126.99756 | 23279 ft | 474 kts | 352° |
| 2025-09-09 15:23 | 36.62845 | 126.99504 | 21855 ft | 464 kts | 353° |
| 2025-09-09 15:23 | 36.69202 | 126.99271 | 20496 ft | 454 kts | 354° |
| 2025-09-09 15:24 | 36.75364 | 127.00790 | 19216 ft | 459 kts | 25° |
| 2025-09-09 15:24 | 36.77961 | 127.03113 | 18610 ft | 458 kts | 41° |
| 2025-09-09 15:25 | 36.84570 | 127.11325 | 16705 ft | 439 kts | 43° |
| 2025-09-09 15:25 | 36.91107 | 127.19034 | 14856 ft | 421 kts | 42° |
| 2025-09-09 15:26 | 36.93239 | 127.21507 | 14258 ft | 415 kts | 41° |
| 2025-09-09 15:26 | 36.97411 | 127.26339 | 12944 ft | 404 kts | 42° |
| 2025-09-09 15:27 | 37.01444 | 127.31022 | 11759 ft | 388 kts | 43° |
| 2025-09-09 15:27 | 37.05328 | 127.35536 | 10512 ft | 377 kts | 43° |
| 2025-09-09 15:28 | 37.09185 | 127.39747 | 9641 ft | 356 kts | 31° |
| 2025-09-09 15:28 | 37.11437 | 127.40801 | 9378 ft | 344 kts | 11° |
| 2025-09-09 15:29 | 37.18130 | 127.39120 | 8148 ft | 330 kts | 328° |
| 2025-09-09 15:29 | 37.20790 | 127.34530 | 7995 ft | 333 kts | 291° |
| 2025-09-09 15:30 | 37.22230 | 127.29076 | 7989 ft | 322 kts | 288° |
| 2025-09-09 15:30 | 37.23565 | 127.23757 | 7990 ft | 318 kts | 288° |
| 2025-09-09 15:31 | 37.24855 | 127.18682 | 7985 ft | 297 kts | 290° |
| 2025-09-09 15:31 | 37.27184 | 127.14564 | 7308 ft | 290 kts | 319° |
| 2025-09-09 15:32 | 37.30148 | 127.11127 | 6572 ft | 288 kts | 318° |
| 2025-09-09 15:32 | 37.31564 | 127.09374 | 6290 ft | 283 kts | 317° |
| 2025-09-09 15:33 | 37.35623 | 127.04233 | 5280 ft | 270 kts | 317° |
| 2025-09-09 15:33 | 37.38197 | 127.01017 | 4534 ft | 253 kts | 317° |
| 2025-09-09 15:34 | 37.40618 | 126.97972 | 3884 ft | 237 kts | 317° |
| 2025-09-09 15:34 | 37.42837 | 126.95181 | 3298 ft | 216 kts | 317° |
| 2025-09-09 15:35 | 37.44932 | 126.92549 | 2728 ft | 208 kts | 316° |
| 2025-09-09 15:35 | 37.46908 | 126.90060 | 2195 ft | 191 kts | 316° |
| 2025-09-09 15:35 | 37.47805 | 126.88931 | 1953 ft | 178 kts | 316° |
| 2025-09-09 15:36 | 37.49447 | 126.86863 | 1522 ft | 152 kts | 316° |
| 2025-09-09 15:37 | 37.52121 | 126.83493 | 810 ft | 135 kts | 314° |
| 2025-09-09 15:37 | 37.53408 | 126.81856 | 472 ft | 132 kts | 315° |
| 2025-09-09 15:38 | 37.54047 | 126.81056 | 317 ft | 127 kts | 314° |
| 2025-09-09 15:38 | 37.55283 | 126.79504 | 65 ft | 114 kts | 313° |
| 2025-09-09 15:39 | 37.55843 | 126.78795 | 60 ft | 38 kts | 315° |
| 2025-09-09 15:39 | 37.56093 | 126.78480 | 63 ft | 23 kts | 319° |
| 2025-09-09 15:39 | 37.56232 | 126.78384 | 65 ft | 23 kts | 339° |
| 2025-09-09 15:40 | 37.56539 | 126.78421 | 63 ft | 24 kts | 44° |
| 2025-09-09 15:41 | 37.56545 | 126.78780 | 64 ft | 22 kts | 135° |
| 2025-09-09 15:41 | 37.56267 | 126.79130 | 61 ft | 30 kts | 135° |
| 2025-09-09 15:42 | 37.55976 | 126.79502 | 61 ft | 25 kts | 130° |
| 2025-09-09 15:42 | 37.55896 | 126.79927 | 65 ft | 19 kts | 108° |
| 2025-09-09 15:43 | 37.55735 | 126.80162 | 63 ft | 20 kts | 135° |
| 2025-09-09 15:43 | 37.55714 | 126.80273 | 61 ft | 6 kts | 45° |
| 2025-09-09 15:43 | 37.55745 | 126.80313 | 61 ft | 5 kts | 45° |
| 2025-09-09 15:44 | 37.55760 | 126.80330 | 63 ft | 1 kts | 43° |
| 2025-09-09 15:45 | 37.55761 | 126.80331 | 63 ft | 0 kts | 44° |